createdAt,value
2023-05-18T00:00:16.547Z,22
2023-05-18T00:05:19.544Z,22
2023-05-18T00:10:16.510Z,0
2023-05-18T00:15:16.504Z,0
2023-05-18T00:20:16.618Z,22
2023-05-18T00:25:16.521Z,22
2023-05-18T00:30:16.459Z,0
2023-05-18T00:35:16.587Z,22
2023-05-18T00:40:16.506Z,22
2023-05-18T00:45:16.520Z,0
2023-05-18T00:50:16.671Z,338
2023-05-18T00:55:16.534Z,338
2023-05-18T01:00:16.525Z,22
2023-05-18T01:05:16.609Z,338
2023-05-18T01:10:16.610Z,338
2023-05-18T01:15:16.732Z,338
2023-05-18T01:20:16.631Z,315
2023-05-18T01:25:16.610Z,338
2023-05-18T01:30:16.747Z,315
2023-05-18T01:35:16.760Z,338
2023-05-18T01:40:16.829Z,338
2023-05-18T01:45:16.658Z,338
2023-05-18T01:50:16.627Z,0
2023-05-18T01:55:16.644Z,0
2023-05-18T02:00:16.690Z,338
2023-05-18T02:05:16.556Z,338
2023-05-18T02:10:16.641Z,315
2023-05-18T02:15:16.914Z,315
2023-05-18T02:20:16.694Z,315
2023-05-18T02:25:16.865Z,315
2023-05-18T02:30:16.733Z,315
2023-05-18T02:35:16.782Z,315
2023-05-18T02:40:16.841Z,315
2023-05-18T02:45:16.851Z,338
2023-05-18T02:50:16.744Z,338
2023-05-18T02:55:17.878Z,338
2023-05-18T03:00:16.917Z,315
2023-05-18T03:05:17.067Z,338
2023-05-18T03:10:16.898Z,315
2023-05-18T03:15:16.792Z,315
2023-05-18T03:20:16.846Z,315
2023-05-18T03:25:16.878Z,315
2023-05-18T03:30:16.844Z,292
2023-05-18T03:35:16.851Z,315
2023-05-18T03:40:16.894Z,315
2023-05-18T03:45:16.892Z,315
2023-05-18T03:50:16.879Z,315
2023-05-18T03:55:16.912Z,315
2023-05-18T04:00:15.886Z,315
2023-05-18T04:05:15.913Z,315
2023-05-18T04:10:15.963Z,315
2023-05-18T04:15:16.121Z,315
2023-05-18T04:20:16.041Z,315
2023-05-18T04:25:16.014Z,315
2023-05-18T04:30:16.018Z,315
2023-05-18T04:35:16.029Z,315
2023-05-18T04:40:15.967Z,315
2023-05-18T04:45:16.012Z,315
2023-05-18T04:50:16.292Z,315
2023-05-18T04:55:16.062Z,315
2023-05-18T05:00:16.082Z,315
2023-05-18T05:05:15.963Z,315
2023-05-18T05:10:16.297Z,315
2023-05-18T05:15:16.315Z,292
2023-05-18T05:20:16.136Z,292
2023-05-18T05:25:16.092Z,292
2023-05-18T05:30:16.068Z,292
2023-05-18T05:35:16.140Z,270
2023-05-18T05:40:16.178Z,248
2023-05-18T05:45:16.199Z,270
2023-05-18T05:50:16.187Z,270
2023-05-18T05:55:16.215Z,270
2023-05-18T06:00:16.150Z,270
2023-05-18T06:05:16.103Z,270
2023-05-18T06:10:16.211Z,270
2023-05-18T06:15:16.207Z,270
2023-05-18T06:20:16.276Z,270
2023-05-18T06:25:16.198Z,270
2023-05-18T06:30:16.222Z,270
2023-05-18T06:35:16.298Z,270
2023-05-18T06:40:16.230Z,270
2023-05-18T06:45:16.352Z,292
2023-05-18T06:50:16.320Z,292
2023-05-18T06:55:16.313Z,292
2023-05-18T07:00:16.327Z,292
2023-05-18T07:05:16.298Z,292
2023-05-18T07:10:16.322Z,292
2023-05-18T07:15:16.353Z,292
2023-05-18T07:20:16.310Z,292
2023-05-18T07:25:16.312Z,270
2023-05-18T07:30:16.397Z,292
2023-05-18T07:35:16.328Z,292
2023-05-18T07:40:16.386Z,292
2023-05-18T07:45:16.374Z,292
2023-05-18T07:50:16.345Z,292
2023-05-18T07:55:16.431Z,292
2023-05-18T08:00:16.358Z,292
2023-05-18T08:05:16.402Z,270
2023-05-18T08:10:16.446Z,270
2023-05-18T08:15:16.426Z,292
2023-05-18T08:20:16.403Z,292
2023-05-18T08:25:16.444Z,248
2023-05-18T08:30:16.572Z,270
2023-05-18T08:35:16.460Z,270
2023-05-18T08:40:16.618Z,270
2023-05-18T08:45:16.553Z,270
2023-05-18T08:50:16.432Z,270
2023-05-18T08:55:16.462Z,270
2023-05-18T09:00:16.560Z,248
2023-05-18T09:05:16.635Z,248
2023-05-18T09:10:16.553Z,248
2023-05-18T09:15:16.573Z,248
2023-05-18T09:20:16.677Z,248
2023-05-18T09:25:16.558Z,248
2023-05-18T09:30:16.591Z,270
2023-05-18T09:35:16.572Z,248
2023-05-18T09:40:16.577Z,202
2023-05-18T09:45:16.550Z,202
2023-05-18T09:50:16.676Z,202
2023-05-18T09:55:16.572Z,202
2023-05-18T10:10:16.705Z,248
2023-05-18T10:15:16.658Z,248
2023-05-18T10:20:16.678Z,248
2023-05-18T10:25:16.686Z,248
2023-05-18T10:30:16.665Z,270
2023-05-18T10:35:16.812Z,270
2023-05-18T10:40:16.777Z,270
2023-05-18T10:45:16.882Z,270
2023-05-18T10:50:16.776Z,248
2023-05-18T10:55:16.740Z,248
2023-05-18T11:00:16.847Z,202
2023-05-18T11:05:16.770Z,180
2023-05-18T11:10:16.797Z,202
2023-05-18T11:15:16.783Z,248
2023-05-18T11:20:16.888Z,292
2023-05-18T11:25:16.794Z,315
2023-05-18T11:30:16.788Z,315
2023-05-18T11:40:16.961Z,292
2023-05-18T11:45:16.931Z,292
2023-05-18T11:50:17.030Z,292
2023-05-18T11:55:16.953Z,315
2023-05-18T12:00:16.862Z,315
2023-05-18T12:05:16.852Z,292
2023-05-18T12:10:16.950Z,338
2023-05-18T12:15:17.568Z,292
2023-05-18T12:20:16.846Z,292
2023-05-18T12:25:16.928Z,315
2023-05-18T12:30:16.913Z,315
2023-05-18T12:35:17.077Z,315
2023-05-18T12:40:17.147Z,292
2023-05-18T12:45:17.014Z,315
2023-05-18T12:50:17.030Z,315
2023-05-18T12:55:16.986Z,292
2023-05-18T13:00:17.014Z,315
2023-05-18T13:05:17.060Z,315
2023-05-18T13:10:17.063Z,315
2023-05-18T13:15:16.916Z,338
2023-05-18T13:20:17.031Z,338
2023-05-18T13:25:17.076Z,315
2023-05-18T13:30:18.096Z,315
2023-05-18T13:35:17.084Z,315
2023-05-18T13:40:17.144Z,315
2023-05-18T13:45:17.197Z,315
2023-05-18T13:50:17.188Z,315
2023-05-18T13:55:17.067Z,315
2023-05-18T14:00:17.406Z,315
2023-05-18T14:05:17.067Z,338
2023-05-18T14:10:17.354Z,0
2023-05-18T14:15:17.411Z,0
2023-05-18T14:20:17.236Z,315
2023-05-18T14:25:17.254Z,0
2023-05-18T14:30:17.146Z,0
2023-05-18T14:35:17.218Z,22
2023-05-18T14:40:17.329Z,22
2023-05-18T14:45:17.185Z,338
2023-05-18T14:50:17.252Z,338
2023-05-18T14:55:17.257Z,338
2023-05-18T15:00:17.382Z,270
2023-05-18T15:05:17.405Z,270
2023-05-18T15:10:17.402Z,315
2023-05-18T15:15:17.800Z,315
2023-05-18T15:20:17.238Z,0
2023-05-18T15:25:17.355Z,338
2023-05-18T15:30:17.344Z,0
2023-05-18T15:35:17.372Z,338
2023-05-18T15:40:17.514Z,338
2023-05-18T15:45:17.437Z,0
2023-05-18T15:50:17.435Z,0
2023-05-18T15:55:17.302Z,0
2023-05-18T16:00:17.360Z,338
2023-05-18T16:05:17.247Z,338
2023-05-18T16:10:17.353Z,0
2023-05-18T16:15:17.358Z,0
2023-05-18T16:20:17.410Z,0
2023-05-18T16:25:15.450Z,22
2023-05-18T16:30:15.462Z,180
2023-05-18T16:35:15.724Z,180
2023-05-18T16:40:15.420Z,180
2023-05-18T16:45:15.460Z,180
2023-05-18T16:50:15.529Z,180
2023-05-18T16:55:15.481Z,180
2023-05-18T17:00:15.449Z,180
2023-05-18T17:05:15.588Z,202
2023-05-18T17:10:15.620Z,202
2023-05-18T17:15:15.667Z,202
2023-05-18T17:20:15.483Z,202
2023-05-18T17:25:15.631Z,202
2023-05-18T17:30:15.546Z,202
2023-05-18T17:35:15.580Z,202
2023-05-18T17:40:15.617Z,202
2023-05-18T17:45:15.561Z,202
2023-05-18T17:50:15.541Z,202
2023-05-18T17:55:15.608Z,202
2023-05-18T18:00:15.559Z,202
2023-05-18T18:05:15.571Z,202
2023-05-18T18:10:15.750Z,202
2023-05-18T18:15:15.633Z,202
2023-05-18T18:20:15.622Z,202
2023-05-18T18:25:15.583Z,202
2023-05-18T18:30:15.842Z,202
2023-05-18T18:35:15.652Z,202
2023-05-18T18:40:15.811Z,202
2023-05-18T18:45:15.735Z,202
2023-05-18T18:50:15.730Z,202
2023-05-18T18:55:15.836Z,202
2023-05-18T19:00:15.750Z,202
2023-05-18T19:05:15.776Z,202
2023-05-18T19:10:15.704Z,202
2023-05-18T19:15:16.102Z,202
2023-05-18T19:20:15.718Z,202
2023-05-18T19:25:15.880Z,202
2023-05-18T19:30:15.788Z,202
2023-05-18T19:35:17.521Z,202
2023-05-18T19:40:15.826Z,202
2023-05-18T19:45:15.828Z,202
2023-05-18T19:50:15.838Z,202
2023-05-18T19:55:15.747Z,202
2023-05-18T20:00:15.890Z,202
2023-05-18T20:05:15.859Z,202
2023-05-18T20:10:15.809Z,202
2023-05-18T20:15:15.982Z,202
2023-05-18T20:20:15.867Z,202
2023-05-18T20:25:15.873Z,202
2023-05-18T20:30:15.885Z,180
2023-05-18T20:35:15.911Z,180
2023-05-18T20:40:15.916Z,180
2023-05-18T20:45:15.934Z,180
2023-05-18T20:50:16.031Z,180
2023-05-18T20:55:15.927Z,180
2023-05-18T21:00:16.116Z,180
2023-05-18T21:05:16.129Z,180
2023-05-18T21:10:15.986Z,180
2023-05-18T21:15:16.001Z,180
2023-05-18T21:20:15.992Z,202
2023-05-18T21:25:15.990Z,180
2023-05-18T21:30:16.073Z,180
2023-05-18T21:35:15.980Z,180
2023-05-18T21:40:16.023Z,180
2023-05-18T21:45:16.075Z,202
2023-05-18T21:50:16.390Z,202
2023-05-18T21:55:16.416Z,180
2023-05-18T22:00:16.342Z,202
2023-05-18T22:05:16.193Z,202
2023-05-18T22:10:16.038Z,202
2023-05-18T22:15:16.229Z,202
2023-05-18T22:20:16.155Z,202
2023-05-18T22:25:16.110Z,202
2023-05-18T22:30:16.285Z,202
2023-05-18T22:35:16.125Z,202
2023-05-18T22:40:16.176Z,202
2023-05-18T22:45:16.295Z,202
2023-05-18T22:50:16.390Z,202
2023-05-18T22:55:16.232Z,202
2023-05-18T23:00:16.343Z,202
2023-05-18T23:05:16.284Z,202
2023-05-18T23:10:16.157Z,202
2023-05-18T23:15:16.201Z,202
2023-05-18T23:20:16.222Z,202
2023-05-18T23:25:16.226Z,202
2023-05-18T23:30:16.327Z,202
2023-05-18T23:35:16.215Z,202
2023-05-18T23:40:16.464Z,202
2023-05-18T23:45:16.247Z,202
2023-05-18T23:50:16.429Z,202
2023-05-18T23:55:16.316Z,202
